Antioch, Ohio
Current Conditions -  °F | °C
As of 2:25 AM on Wednesday 22 Oct 2014 (Local Time) from KPKB Reporting Station
Light Rain Light Rain  
Wind Chill: 41°   Ceiling: 900
Heat Index: 45°   Visibility: 6mi
Dew Point: 42°   Wind: 7mph
Humidity: 90%   Direction: 300°WNW
Pressure: 30.11"   Gusts: NA
Location:  39.7388°N, 81.0973°W
Report Text: KPKB 220625Z AUTO 30006KT 6SM -RA BR OVC009 07/06 A3011 RMK AO2 RAB20 P0000 T00720056
Loading
Personal Weather Stations






























Interactive Weather Map
Tropical Storm Tracking
New forecast layout! Learn more

10-Day Weather Forecast

Advertisements
Track Severe Weather on mobile